Search for airport 
image banner adimage banner adimage banner ad
image banner ad

PN82 - West Coplay

Located in Whitehall, United States

ICAO - PN82, IATA -

Data provided by Airmate  

General information

Coordinates: N40°40'27" W75°30'18"
Elevation is 375 feet MSL.
 
View others Airports in Pennsylvania

Operational data

Special qualification required
Current time UTC:
Current local time:
Weather at : KABE - Lehigh Valley Intl ( 6 km )
METAR: KABE 291551Z 21011KT 10SM FEW024 SCT040 BKN050 25/18 A2996 RMK AO2 SLP143 T02500183
TAF: KABE 291502Z 2915/3012 17008KT P6SM VCSH BKN020 FM291800 21010KT P6SM -SHRA VCTS BKN045CB TEMPO 2921/2924 VRB10G30KT 2SM TSRA OVC050CB FM300200 26008KT 6SM BR BKN020
View NOTAMs / SUP AIP / TFR affecting this airport [VIEW]
Communications frequencies: [VIEW]

Runways:

Airport contact information

Address: Whitehall United States

Satellite view of PN82